This is the latest recevied weather packets stored in our database for station/object K1RFS. If no packets are shown the sender has not sent any weather packets the latest 10 day(s).
| Time | Temp. | Humidity | Pressure | Rain* | Wind** | Luminosity | Snow |
|---|---|---|---|---|---|---|---|
| 1787380706 | 19.44° C | 77% | 1011.3 hPa | 6.6 mm | - | 0 W/m² | - |
| 1787380403 | 20° C | 76% | 1011.4 hPa | 4.32 mm | - | 0 W/m² | - |
| 1787380099 | 20.56° C | 74% | 1011.6 hPa | 3.05 mm | - | 0 W/m² | - |
| 1787379795 | 21.11° C | 70% | 1011.4 hPa | 1.78 mm | - | 0 W/m² | - |
| 1787379494 | 21.67° C | 66% | 1011.2 hPa | 0 mm | - | 0 W/m² | - |
| 1787379189 | 22.22° C | 63% | 1011.1 hPa | 0 mm | - | 0 W/m² | - |
| 1787378888 | 22.22° C | 62% | 1011 hPa | 0 mm | - | 0 W/m² | - |
| 1787378583 | 22.78° C | 61% | 1011.2 hPa | 0 mm | - | 0 W/m² | - |
| 1787378282 | 22.78° C | 57% | 1011.1 hPa | 0 mm | - | 0 W/m² | - |
| 1787377979 | 22.78° C | 61% | 1010.6 hPa | 0 mm | - | 0 W/m² | - |
| 1787377677 | 23.33° C | 60% | 1010.5 hPa | 0 mm | - | 0 W/m² | - |
| 1787377375 | 23.89° C | 53% | 1010.1 hPa | 0 mm | - | 0 W/m² | - |
| 1787377071 | 23.33° C | 54% | 1009.8 hPa | 0 mm | - | 0 W/m² | - |
| 1787376768 | 22.78° C | 56% | 1009.5 hPa | 0 mm | - | 0 W/m² | - |
| 1787376463 | 23.33° C | 55% | 1009.8 hPa | 0 mm | - | 0 W/m² | - |
| 1787376159 | 23.89° C | 52% | 1009.7 hPa | 0 mm | - | 0 W/m² | - |
| 1787375855 | 24.44° C | 52% | 1009.7 hPa | 0 mm | - | 0 W/m² | - |
| 1787375550 | 25.56° C | 45% | 1009.4 hPa | 0 mm | - | 0 W/m² | - |
| 1787375245 | 27.22° C | 39% | 1009.4 hPa | 0 mm | - | 0 W/m² | - |
| 1787374941 | 27.22° C | 34% | 1009 hPa | 0 mm | - | 0 W/m² | - |
| 1787374637 | 27.22° C | 33% | 1008.7 hPa | 0 mm | - | 0 W/m² | - |
| 1787374333 | 27.22° C | 32% | 1008.5 hPa | 0 mm | - | 0 W/m² | - |
| 1787374029 | 27.22° C | 32% | 1008.4 hPa | 0 mm | - | 0 W/m² | - |
| 1787373728 | 27.22° C | 32% | 1008.2 hPa | 0 mm | - | 0 W/m² | - |
| 1787373423 | 27.22° C | 33% | 1008.1 hPa | 0 mm | - | 0 W/m² | - |
* Rain latest hour (hover to see other rain measurements)
** Current wind speed in m/s (hover to see current wind gust speed)